Time;durP1;ratioP1;P1;durP2;ratioP2;P2;SDS_P1;SDS_P2;PMS_P1;PMS_P2;Temp;Humidity;BMP_temperature;BMP_pressure;BME280_temperature;BME280_humidity;BME280_pressure;Samples;Min_cycle;Max_cycle;Signal;HPM_P1;HPM_P2
2024/04/27 00:00:14;;;;;;;2.05;0.93;;;23.60;45.40;;;;;;5430425;26;20111;-63
2024/04/27 00:02:40;;;;;;;1.55;1.00;;;23.60;45.40;;;;;;5431582;26;20440;-63
2024/04/27 00:05:05;;;;;;;1.67;1.25;;;23.50;45.40;;;;;;5431157;26;20012;-63
2024/04/27 00:07:34;;;;;;;1.48;1.02;;;23.50;45.40;;;;;;5433515;26;19999;-62
2024/04/27 00:10:00;;;;;;;1.42;0.93;;;23.50;45.40;;;;;;5428871;26;20420;-63
2024/04/27 00:12:25;;;;;;;1.55;0.95;;;23.50;45.40;;;;;;5431028;26;20082;-63
2024/04/27 00:14:51;;;;;;;1.55;1.00;;;23.50;45.40;;;;;;5426981;26;19996;-62
2024/04/27 00:17:17;;;;;;;1.40;1.00;;;23.50;45.40;;;;;;5427410;26;20391;-62
2024/04/27 00:19:42;;;;;;;2.00;1.10;;;23.50;45.40;;;;;;5430093;26;19999;-63
2024/04/27 00:22:08;;;;;;;1.35;0.90;;;23.50;45.40;;;;;;5429781;26;20027;-63
2024/04/27 00:24:34;;;;;;;1.67;1.00;;;23.40;45.30;;;;;;5429805;26;19995;-63
2024/04/27 00:26:59;;;;;;;1.60;1.10;;;23.40;45.30;;;;;;5431388;26;19996;-63
2024/04/27 00:29:25;;;;;;;2.10;1.10;;;23.40;45.30;;;;;;5426717;26;20000;-62
2024/04/27 00:31:51;;;;;;;1.67;1.00;;;23.40;45.30;;;;;;5430485;26;20007;-63
2024/04/27 00:34:16;;;;;;;1.48;0.90;;;23.40;45.30;;;;;;5432222;26;20000;-62
2024/04/27 00:36:44;;;;;;;1.65;1.00;;;23.30;45.20;;;;;;5432757;26;20487;-63
2024/04/27 00:39:10;;;;;;;1.65;0.93;;;23.30;45.30;;;;;;5429130;26;19996;-63
2024/04/27 00:41:35;;;;;;;1.85;1.10;;;23.30;45.30;;;;;;5433727;26;20036;-62
2024/04/27 00:44:01;;;;;;;1.67;1.10;;;23.30;45.30;;;;;;5429029;26;20019;-62
2024/04/27 00:46:27;;;;;;;1.35;0.90;;;23.30;45.30;;;;;;5430850;26;20073;-62
2024/04/27 00:48:54;;;;;;;1.20;0.90;;;23.30;45.30;;;;;;5431228;26;20166;-62
2024/04/27 00:51:20;;;;;;;1.25;0.88;;;23.30;45.30;;;;;;5428068;26;20452;-62
2024/04/27 00:53:47;;;;;;;1.55;0.93;;;23.20;45.20;;;;;;5429456;26;20443;-63
2024/04/27 00:56:13;;;;;;;1.08;0.70;;;23.20;45.30;;;;;;5428554;26;20015;-62
2024/04/27 00:58:39;;;;;;;1.55;0.88;;;23.20;45.20;;;;;;5423581;26;20052;-62
2024/04/27 01:01:05;;;;;;;1.23;0.80;;;23.20;45.30;;;;;;5428717;26;20031;-62
2024/04/27 01:03:30;;;;;;;0.95;0.80;;;23.20;45.30;;;;;;5430283;26;20463;-62
2024/04/27 01:05:56;;;;;;;1.27;0.85;;;23.20;45.30;;;;;;5425431;26;20459;-63
2024/04/27 01:08:22;;;;;;;1.30;0.80;;;23.20;45.30;;;;;;5428763;26;20459;-62
2024/04/27 01:10:47;;;;;;;0.95;0.73;;;23.20;45.30;;;;;;5431174;26;20003;-62
2024/04/27 01:13:15;;;;;;;1.33;0.90;;;23.20;45.30;;;;;;5425798;26;20004;-62
2024/04/27 01:15:43;;;;;;;1.38;0.82;;;23.10;45.30;;;;;;5432169;26;20007;-62
2024/04/27 01:18:09;;;;;;;1.35;0.90;;;23.10;45.30;;;;;;5431587;26;20356;-62
2024/04/27 01:20:35;;;;;;;1.27;0.88;;;23.10;45.30;;;;;;5427191;26;19995;-62
2024/04/27 01:23:00;;;;;;;1.25;0.77;;;23.10;45.30;;;;;;5427842;26;20000;-63
2024/04/27 01:25:26;;;;;;;1.10;0.70;;;23.00;45.30;;;;;;5426906;26;20443;-60
2024/04/27 01:27:51;;;;;;;1.00;0.70;;;23.00;45.30;;;;;;5426311;26;20077;-60
2024/04/27 01:30:17;;;;;;;1.08;0.70;;;23.00;45.30;;;;;;5424817;26;20311;-61
2024/04/27 01:32:43;;;;;;;0.95;0.80;;;23.00;45.30;;;;;;5426748;26;20072;-60
2024/04/27 01:35:08;;;;;;;1.23;0.80;;;23.00;45.30;;;;;;5425947;26;20146;-60
2024/04/27 01:37:34;;;;;;;1.40;0.85;;;23.00;45.40;;;;;;5428897;26;20111;-60
2024/04/27 01:40:00;;;;;;;0.90;0.80;;;23.00;45.30;;;;;;5427864;26;20076;-60
2024/04/27 01:42:25;;;;;;;1.10;0.77;;;23.00;45.40;;;;;;5425063;26;20354;-60
2024/04/27 01:44:51;;;;;;;1.10;0.80;;;22.90;45.30;;;;;;5426546;26;19999;-60
2024/04/27 01:47:17;;;;;;;1.10;0.80;;;22.90;45.30;;;;;;5427737;26;20007;-60
2024/04/27 01:49:42;;;;;;;1.00;0.70;;;22.90;45.30;;;;;;5430430;26;20005;-60
2024/04/27 01:52:08;;;;;;;1.42;0.80;;;22.90;45.40;;;;;;5428856;26;20003;-60
2024/04/27 01:54:33;;;;;;;1.17;0.88;;;22.90;45.40;;;;;;5427743;26;20019;-60
2024/04/27 01:56:59;;;;;;;1.00;0.77;;;22.90;45.40;;;;;;5442561;26;20049;-60
2024/04/27 01:59:25;;;;;;;0.95;0.80;;;22.90;45.40;;;;;;5424268;26;20440;-61
2024/04/27 02:01:50;;;;;;;0.80;0.70;;;22.80;45.30;;;;;;5427583;26;20075;-61
2024/04/27 02:04:16;;;;;;;1.45;0.90;;;22.90;45.40;;;;;;5428371;26;19999;-62
2024/04/27 02:06:45;;;;;;;1.13;0.80;;;22.80;45.30;;;;;;5426280;26;20007;-62
2024/04/27 02:09:11;;;;;;;1.10;0.90;;;22.80;45.30;;;;;;5433494;26;21102;-62
2024/04/27 02:11:40;;;;;;;0.70;0.70;;;22.80;45.30;;;;;;5427244;26;20019;-62
2024/04/27 02:14:06;;;;;;;1.02;0.80;;;22.80;45.40;;;;;;5427106;26;20429;-62
2024/04/27 02:19:16;;;;;;;0.93;0.70;;;22.80;45.40;;;;;;5430017;26;20117;-62
2024/04/27 02:21:42;;;;;;;1.33;1.00;;;22.80;45.40;;;;;;5424903;26;20023;-62
2024/04/27 02:24:12;;;;;;;1.25;0.73;;;22.80;45.40;;;;;;5422555;26;20447;-62
2024/04/27 02:26:38;;;;;;;;;;;22.70;45.30;;;;;;5430000;26;20014;-62
2024/04/27 02:29:04;;;;;;;1.20;0.80;;;22.70;45.30;;;;;;5422694;26;20375;-62
2024/04/27 02:31:30;;;;;;;0.75;0.70;;;22.70;45.30;;;;;;5424919;26;20007;-62
2024/04/27 02:33:56;;;;;;;0.88;0.70;;;22.70;45.30;;;;;;5427246;26;20114;-62
2024/04/27 02:36:22;;;;;;;1.13;0.80;;;22.70;45.30;;;;;;5425979;26;20460;-62
2024/04/27 02:38:47;;;;;;;1.15;0.90;;;22.70;45.40;;;;;;5425829;26;20530;-62
2024/04/27 02:41:14;;;;;;;1.48;0.80;;;22.70;45.40;;;;;;5427035;26;20391;-62
2024/04/27 02:43:40;;;;;;;1.33;0.82;;;22.70;45.40;;;;;;5422270;26;20019;-62
2024/04/27 02:46:06;;;;;;;0.90;0.70;;;22.60;45.80;;;;;;5429586;26;20415;-63
2024/04/27 02:48:32;;;;;;;1.35;0.80;;;22.60;45.30;;;;;;5432963;26;20006;-62
2024/04/27 02:50:58;;;;;;;1.10;0.80;;;22.60;45.30;;;;;;5431005;26;20006;-62
2024/04/27 02:53:24;;;;;;;0.95;0.70;;;22.60;45.40;;;;;;5435788;26;20008;-62
2024/04/27 02:55:50;;;;;;;1.30;0.70;;;22.60;45.30;;;;;;5425682;26;20666;-62
2024/04/27 02:58:16;;;;;;;1.20;0.80;;;22.60;45.30;;;;;;5429519;26;20398;-62
2024/04/27 03:00:42;;;;;;;0.95;0.75;;;22.60;45.30;;;;;;5427194;26;20000;-62
2024/04/27 03:03:08;;;;;;;1.35;0.90;;;22.60;45.30;;;;;;5432396;26;20690;-62
2024/04/27 03:05:33;;;;;;;1.50;0.93;;;22.60;45.30;;;;;;5429173;26;20008;-63
2024/04/27 03:08:00;;;;;;;1.42;0.85;;;22.60;45.30;;;;;;5430383;26;20073;-62
2024/04/27 03:10:25;;;;;;;1.08;0.77;;;22.50;45.30;;;;;;5430128;26;20005;-62
2024/04/27 03:12:59;;;;;;;0.90;0.70;;;22.50;45.30;;;;;;5430551;26;20339;-62
2024/04/27 03:15:25;;;;;;;1.23;0.75;;;22.50;45.30;;;;;;5428181;26;20077;-62
2024/04/27 03:17:53;;;;;;;1.13;0.80;;;22.50;45.80;;;;;;5431565;26;20018;-62
2024/04/27 03:20:19;;;;;;;0.97;0.80;;;22.50;45.30;;;;;;5430093;26;20107;-62
2024/04/27 03:22:44;;;;;;;1.20;0.75;;;22.50;45.30;;;;;;5432737;26;20237;-62
2024/04/27 03:25:14;;;;;;;1.25;0.73;;;22.50;45.30;;;;;;5429590;26;20476;-62
2024/04/27 03:27:43;;;;;;;1.40;0.80;;;22.50;45.30;;;;;;5429051;26;20424;-62
2024/04/27 03:30:09;;;;;;;0.90;0.75;;;22.40;45.30;;;;;;5427976;26;20003;-62
2024/04/27 03:32:40;;;;;;;1.17;0.82;;;22.40;45.30;;;;;;5428221;26;20002;-62
2024/04/27 03:35:07;;;;;;;1.08;0.70;;;22.40;45.30;;;;;;5429324;26;20004;-61
2024/04/27 03:37:33;;;;;;;0.88;0.70;;;22.40;45.30;;;;;;5429489;26;20073;-61
2024/04/27 03:39:59;;;;;;;1.08;0.73;;;22.40;45.30;;;;;;5426896;26;20335;-61
2024/04/27 03:42:25;;;;;;;0.90;0.80;;;22.40;45.30;;;;;;5433154;26;20010;-60
2024/04/27 03:44:51;;;;;;;0.80;0.80;;;22.40;45.80;;;;;;5422554;26;19999;-62
2024/04/27 03:47:17;;;;;;;1.05;0.70;;;22.30;45.30;;;;;;5428703;26;20067;-62
2024/04/27 03:49:42;;;;;;;1.63;0.90;;;22.30;45.30;;;;;;5431804;26;20011;-63
2024/04/27 03:52:08;;;;;;;1.73;1.10;;;22.30;45.30;;;;;;5428095;26;20530;-62
2024/04/27 03:54:36;;;;;;;0.93;0.70;;;22.30;45.30;;;;;;5426731;26;19995;-62
2024/04/27 03:57:01;;;;;;;1.20;0.70;;;22.30;45.30;;;;;;5429301;26;20358;-63
2024/04/27 03:59:29;;;;;;;0.88;0.80;;;22.30;45.30;;;;;;5429926;26;20003;-62
2024/04/27 04:01:55;;;;;;;1.10;0.80;;;22.30;45.30;;;;;;5427249;26;20069;-62
2024/04/27 04:04:20;;;;;;;0.90;0.70;;;22.30;45.30;;;;;;5432400;26;20013;-62
2024/04/27 04:06:46;;;;;;;1.20;0.80;;;22.30;45.30;;;;;;5432451;26;19999;-63
2024/04/27 04:09:11;;;;;;;1.23;0.80;;;22.30;45.30;;;;;;5429897;26;20010;-62
2024/04/27 04:11:37;;;;;;;1.27;0.90;;;22.30;45.30;;;;;;5427343;26;20458;-62
2024/04/27 04:14:03;;;;;;;0.75;0.65;;;22.20;45.30;;;;;;5432924;26;20023;-62
2024/04/27 04:16:28;;;;;;;1.00;0.77;;;22.20;45.30;;;;;;5428139;26;20007;-62
2024/04/27 04:18:54;;;;;;;0.70;0.60;;;22.20;45.30;;;;;;5429468;26;20006;-63
2024/04/27 04:21:22;;;;;;;1.08;0.80;;;22.20;45.30;;;;;;5428921;26;20010;-62
2024/04/27 04:23:49;;;;;;;0.95;0.75;;;22.20;45.30;;;;;;5427289;26;20457;-62
2024/04/27 04:26:14;;;;;;;1.00;0.80;;;22.20;45.30;;;;;;5426254;26;20010;-62
2024/04/27 04:28:41;;;;;;;0.90;0.77;;;22.20;45.30;;;;;;5428313;26;19999;-62
2024/04/27 04:31:07;;;;;;;0.93;0.80;;;22.20;45.30;;;;;;5424251;26;20413;-62
2024/04/27 04:33:32;;;;;;;1.00;0.75;;;22.20;45.30;;;;;;5429543;26;19995;-62
2024/04/27 04:35:58;;;;;;;0.82;0.70;;;22.20;45.30;;;;;;5429606;26;19999;-62
2024/04/27 04:38:24;;;;;;;0.93;0.77;;;22.20;45.30;;;;;;5432953;26;19996;-62
2024/04/27 04:40:49;;;;;;;0.70;0.70;;;22.20;45.30;;;;;;5431380;26;19995;-62
2024/04/27 04:43:15;;;;;;;0.63;0.60;;;22.20;45.30;;;;;;5423653;26;20010;-62
2024/04/27 04:45:40;;;;;;;0.93;0.60;;;22.20;45.30;;;;;;5423123;26;19995;-62
2024/04/27 04:48:07;;;;;;;0.95;0.80;;;22.10;45.30;;;;;;5432051;26;20044;-62
2024/04/27 04:50:33;;;;;;;0.63;0.60;;;22.10;45.30;;;;;;5431284;26;20007;-62
2024/04/27 04:52:58;;;;;;;0.60;0.60;;;22.10;45.30;;;;;;5423457;26;20329;-62
2024/04/27 04:55:24;;;;;;;0.80;0.60;;;22.10;45.30;;;;;;5427881;26;20007;-62
2024/04/27 04:57:50;;;;;;;0.60;0.60;;;22.10;45.30;;;;;;5427063;26;19999;-62
2024/04/27 05:00:18;;;;;;;0.98;0.80;;;22.10;45.30;;;;;;5423145;26;19995;-63
2024/04/27 05:02:44;;;;;;;0.60;0.60;;;22.10;45.30;;;;;;5433043;26;20023;-62
2024/04/27 05:05:12;;;;;;;0.63;0.63;;;22.10;45.30;;;;;;5432457;26;20406;-60
2024/04/27 05:07:39;;;;;;;0.60;0.55;;;22.10;45.30;;;;;;5430599;26;20048;-61
2024/04/27 05:10:05;;;;;;;0.60;0.60;;;22.10;45.30;;;;;;5430238;26;20022;-60
2024/04/27 05:12:30;;;;;;;0.90;0.65;;;22.10;45.30;;;;;;5428781;26;19995;-61
2024/04/27 05:14:56;;;;;;;0.70;0.70;;;22.10;45.30;;;;;;5427570;26;20335;-60
2024/04/27 05:17:22;;;;;;;0.57;0.57;;;22.10;45.30;;;;;;5430487;26;20005;-60
2024/04/27 05:19:48;;;;;;;0.82;0.70;;;22.10;45.30;;;;;;5425601;26;20026;-61
2024/04/27 05:22:14;;;;;;;0.77;0.70;;;22.00;45.30;;;;;;5428028;26;19991;-61
2024/04/27 05:24:39;;;;;;;0.63;0.60;;;22.10;45.30;;;;;;5429631;26;20479;-60
2024/04/27 05:27:05;;;;;;;0.93;0.70;;;22.10;45.30;;;;;;5427177;26;20458;-61
2024/04/27 05:29:31;;;;;;;0.98;0.70;;;22.10;45.30;;;;;;5431822;26;19999;-60
2024/04/27 05:31:56;;;;;;;0.70;0.60;;;22.10;45.90;;;;;;5426798;26;20035;-60
2024/04/27 05:34:22;;;;;;;0.60;0.60;;;22.10;45.40;;;;;;5430494;26;19998;-61
2024/04/27 05:36:47;;;;;;;1.15;0.60;;;22.10;45.30;;;;;;5429835;26;20011;-61
2024/04/27 05:39:13;;;;;;;0.50;0.50;;;22.10;45.40;;;;;;5428324;26;20009;-60
2024/04/27 05:41:39;;;;;;;1.00;0.70;;;22.00;45.30;;;;;;5426793;26;20099;-60
2024/04/27 05:44:05;;;;;;;0.70;0.70;;;22.00;45.30;;;;;;5432100;26;20002;-60
2024/04/27 05:46:30;;;;;;;0.90;0.70;;;22.00;45.30;;;;;;5424100;26;20068;-62
2024/04/27 05:48:56;;;;;;;0.60;0.60;;;22.00;45.30;;;;;;5428825;26;20010;-62
2024/04/27 05:51:22;;;;;;;0.68;0.68;;;22.00;45.90;;;;;;5432306;26;20006;-61
2024/04/27 05:53:47;;;;;;;0.50;0.50;;;22.00;45.40;;;;;;5427924;26;20456;-62
2024/04/27 05:56:13;;;;;;;1.05;0.75;;;22.00;45.40;;;;;;5426815;26;20069;-61
2024/04/27 05:58:39;;;;;;;0.75;0.65;;;22.00;45.40;;;;;;5423487;26;19999;-62
2024/04/27 06:01:05;;;;;;;0.73;0.60;;;22.00;45.40;;;;;;5425955;26;20007;-61
2024/04/27 06:03:30;;;;;;;0.85;0.60;;;22.00;45.40;;;;;;5432337;26;20004;-61
2024/04/27 06:05:56;;;;;;;0.70;0.68;;;21.90;45.40;;;;;;5428286;26;19999;-61
2024/04/27 06:08:22;;;;;;;1.00;0.63;;;21.90;45.40;;;;;;5427613;26;19999;-61
2024/04/27 06:10:47;;;;;;;0.98;0.70;;;22.00;45.40;;;;;;5426966;26;20011;-61
2024/04/27 06:13:13;;;;;;;1.05;0.60;;;22.00;45.50;;;;;;5425593;26;20377;-61
2024/04/27 06:15:39;;;;;;;0.73;0.60;;;22.00;45.40;;;;;;5423728;26;20013;-61
2024/04/27 06:18:05;;;;;;;0.70;0.60;;;22.00;45.50;;;;;;5426604;26;20003;-60
2024/04/27 06:20:31;;;;;;;0.73;0.70;;;22.00;45.50;;;;;;5428935;26;20088;-61
2024/04/27 06:22:57;;;;;;;0.60;0.60;;;22.00;45.50;;;;;;5432167;26;19999;-60
2024/04/27 06:25:22;;;;;;;0.50;0.50;;;21.90;45.40;;;;;;5429449;26;20451;-61
2024/04/27 06:27:48;;;;;;;0.60;0.60;;;22.00;45.50;;;;;;5424888;26;20007;-60
2024/04/27 06:30:13;;;;;;;0.75;0.60;;;21.90;45.50;;;;;;5425509;26;20009;-61
2024/04/27 06:32:39;;;;;;;0.85;0.60;;;21.90;45.50;;;;;;5422889;26;20002;-60
2024/04/27 06:35:07;;;;;;;1.02;0.60;;;21.90;45.50;;;;;;5426290;26;20000;-61
2024/04/27 06:37:33;;;;;;;0.80;0.60;;;21.90;45.50;;;;;;5429600;26;20075;-61
2024/04/27 06:39:59;;;;;;;0.75;0.60;;;21.90;45.50;;;;;;5433745;26;20015;-60
2024/04/27 06:42:26;;;;;;;0.80;0.70;;;21.90;45.60;;;;;;5424881;26;20031;-60
2024/04/27 06:44:52;;;;;;;0.95;0.60;;;21.90;45.50;;;;;;5428335;26;20537;-60
2024/04/27 06:47:18;;;;;;;0.50;0.50;;;21.90;45.50;;;;;;5423539;26;19996;-60
2024/04/27 06:49:43;;;;;;;0.60;0.52;;;21.90;45.60;;;;;;5428831;26;20014;-61
2024/04/27 06:52:09;;;;;;;0.93;0.60;;;21.90;45.60;;;;;;5427098;26;20010;-61
2024/04/27 06:54:35;;;;;;;0.80;0.70;;;21.90;45.60;;;;;;5428520;26;20004;-61
2024/04/27 06:57:00;;;;;;;0.77;0.68;;;21.90;45.60;;;;;;5423860;26;20000;-62
2024/04/27 06:59:26;;;;;;;0.63;0.60;;;21.80;45.60;;;;;;5430187;26;20000;-62
2024/04/27 07:01:51;;;;;;;0.68;0.55;;;21.90;45.60;;;;;;5426062;26;19995;-62
2024/04/27 07:04:17;;;;;;;0.70;0.70;;;21.90;45.60;;;;;;5424549;26;20121;-62
2024/04/27 07:06:43;;;;;;;1.10;0.70;;;21.90;45.60;;;;;;5428152;26;20010;-62
2024/04/27 07:09:08;;;;;;;0.82;0.60;;;21.90;45.70;;;;;;5431515;26;19995;-62
2024/04/27 07:11:34;;;;;;;0.93;0.60;;;21.90;45.70;;;;;;5424293;26;20347;-62
2024/04/27 07:14:00;;;;;;;0.73;0.57;;;21.90;45.70;;;;;;5426526;26;20052;-62
2024/04/27 07:16:29;;;;;;;1.08;0.70;;;21.90;45.70;;;;;;5425222;26;20004;-62
2024/04/27 07:18:55;;;;;;;0.82;0.70;;;21.90;45.70;;;;;;5427582;26;20014;-62
2024/04/27 07:21:24;;;;;;;0.75;0.60;;;21.90;45.70;;;;;;5427209;26;20003;-62
2024/04/27 07:23:50;;;;;;;0.52;0.52;;;21.90;45.80;;;;;;5425038;26;19999;-62
2024/04/27 07:26:15;;;;;;;0.70;0.60;;;21.80;45.70;;;;;;5431704;26;20041;-62
2024/04/27 07:28:42;;;;;;;0.82;0.60;;;21.80;45.70;;;;;;5424974;26;20023;-62
2024/04/27 07:31:08;;;;;;;0.82;0.60;;;21.80;45.70;;;;;;5422804;26;20011;-62
2024/04/27 07:33:34;;;;;;;1.05;0.77;;;21.80;45.70;;;;;;5433282;26;20343;-62
2024/04/27 07:36:00;;;;;;;0.90;0.70;;;21.80;45.80;;;;;;5430093;26;20013;-61
2024/04/27 07:38:25;;;;;;;0.70;0.70;;;21.80;45.80;;;;;;5431516;26;20335;-61
2024/04/27 07:40:51;;;;;;;0.60;0.60;;;21.80;45.80;;;;;;5431107;26;20339;-62
2024/04/27 07:43:17;;;;;;;0.65;0.65;;;21.80;45.80;;;;;;5428608;26;20010;-62
2024/04/27 07:45:42;;;;;;;0.85;0.65;;;21.80;45.80;;;;;;5430939;26;20053;-62
2024/04/27 07:48:11;;;;;;;0.95;0.70;;;21.80;45.90;;;;;;5424746;26;20069;-63
2024/04/27 07:50:40;;;;;;;0.80;0.70;;;21.80;45.90;;;;;;5428045;26;20010;-61
2024/04/27 07:53:06;;;;;;;0.93;0.77;;;21.80;45.90;;;;;;5430877;26;20409;-62
2024/04/27 07:55:32;;;;;;;0.85;0.65;;;21.80;45.90;;;;;;5426525;26;20000;-62
2024/04/27 07:57:57;;;;;;;0.80;0.63;;;21.80;45.90;;;;;;5428733;26;20537;-62
2024/04/27 08:00:23;;;;;;;0.70;0.65;;;21.80;45.90;;;;;;5432166;26;20082;-62
2024/04/27 08:02:53;;;;;;;0.77;0.70;;;21.80;45.90;;;;;;5426630;26;19999;-62
2024/04/27 08:05:19;;;;;;;0.75;0.60;;;21.80;45.90;;;;;;5429787;26;20404;-62
2024/04/27 08:07:46;;;;;;;0.80;0.70;;;21.80;46.40;;;;;;5431616;26;20351;-62
2024/04/27 08:10:12;;;;;;;0.60;0.60;;;21.80;45.90;;;;;;5429536;26;20003;-62
2024/04/27 08:12:38;;;;;;;0.60;0.60;;;21.80;46.50;;;;;;5430501;26;20328;-62
2024/04/27 08:15:05;;;;;;;0.80;0.70;;;21.80;45.90;;;;;;5428505;26;20018;-62
2024/04/27 08:17:30;;;;;;;0.93;0.60;;;21.80;46.00;;;;;;5427276;26;20003;-62
2024/04/27 08:19:56;;;;;;;0.95;0.70;;;21.80;46.00;;;;;;5433133;26;19996;-62
2024/04/27 08:22:21;;;;;;;1.25;0.80;;;21.80;46.00;;;;;;5430425;26;19999;-62
2024/04/27 08:24:47;;;;;;;0.77;0.60;;;21.80;46.00;;;;;;5430000;26;20071;-62
2024/04/27 08:27:13;;;;;;;1.98;0.80;;;21.80;45.90;;;;;;5432219;26;20006;-62
2024/04/27 08:29:38;;;;;;;0.93;0.80;;;21.80;45.90;;;;;;5428907;26;20434;-62
2024/04/27 08:32:04;;;;;;;1.50;0.80;;;21.80;46.00;;;;;;5429707;26;20009;-62
2024/04/27 08:34:30;;;;;;;0.80;0.70;;;21.80;46.00;;;;;;5429306;26;20370;-62
2024/04/27 08:36:55;;;;;;;1.80;0.85;;;21.80;46.00;;;;;;5430270;26;20451;-61
2024/04/27 08:39:21;;;;;;;1.10;0.70;;;21.80;46.00;;;;;;5428408;26;19999;-60
2024/04/27 08:41:47;;;;;;;1.30;0.80;;;21.80;46.00;;;;;;5427940;26;20462;-61
2024/04/27 08:44:13;;;;;;;0.95;0.70;;;21.80;46.00;;;;;;5427536;26;20452;-60
2024/04/27 08:46:39;;;;;;;1.10;0.80;;;21.80;46.00;;;;;;5424901;26;20063;-60
2024/04/27 08:49:06;;;;;;;1.80;0.90;;;21.80;46.00;;;;;;5430665;26;21098;-61
2024/04/27 08:51:32;;;;;;;1.30;0.80;;;21.80;46.00;;;;;;5426450;26;20473;-60
2024/04/27 08:54:01;;;;;;;1.25;0.90;;;21.80;46.00;;;;;;5428565;26;19995;-61
2024/04/27 08:56:35;;;;;;;1.30;0.80;;;21.80;46.00;;;;;;5427354;26;20000;-60
2024/04/27 08:59:01;;;;;;;1.25;0.80;;;21.80;46.00;;;;;;5426935;26;20018;-60
2024/04/27 09:01:26;;;;;;;0.82;0.70;;;21.80;46.00;;;;;;5430673;26;20034;-61
2024/04/27 09:03:52;;;;;;;1.10;0.90;;;21.80;46.00;;;;;;5427885;26;20372;-61
2024/04/27 09:06:18;;;;;;;0.70;0.63;;;21.80;46.00;;;;;;5428143;26;20465;-61
2024/04/27 09:08:54;;;;;;;0.90;0.80;;;21.80;46.00;;;;;;5428865;26;20003;-60
2024/04/27 09:11:25;;;;;;;1.70;0.70;;;21.80;46.00;;;;;;5428911;26;20100;-61
2024/04/27 09:13:51;;;;;;;1.40;0.90;;;21.80;46.00;;;;;;5427158;26;20003;-60
2024/04/27 09:16:18;;;;;;;1.45;0.90;;;21.80;46.10;;;;;;5423189;26;20000;-61
2024/04/27 09:18:53;;;;;;;0.93;0.73;;;21.80;46.10;;;;;;5426327;26;20622;-60
2024/04/27 09:21:19;;;;;;;1.30;0.90;;;21.80;46.10;;;;;;5426093;26;20015;-60
2024/04/27 09:23:45;;;;;;;0.85;0.80;;;21.80;46.10;;;;;;5428034;26;20011;-61
2024/04/27 09:26:10;;;;;;;1.90;0.70;;;21.80;46.10;;;;;;5427247;26;20103;-61
2024/04/27 09:28:47;;;;;;;1.27;0.85;;;21.80;46.10;;;;;;5430624;26;20003;-61
2024/04/27 09:31:13;;;;;;;1.33;1.02;;;21.90;46.20;;;;;;5424809;26;20003;-60
2024/04/27 09:33:39;;;;;;;1.35;0.88;;;21.80;46.10;;;;;;5428639;26;20003;-61
2024/04/27 09:36:10;;;;;;;1.35;1.00;;;21.80;46.10;;;;;;5430360;26;20014;-61
2024/04/27 09:38:46;;;;;;;1.00;0.70;;;21.90;46.20;;;;;;5429547;26;20447;-61
2024/04/27 09:41:13;;;;;;;1.20;0.80;;;21.80;46.10;;;;;;5427691;26;20011;-60
2024/04/27 09:43:53;;;;;;;1.15;0.80;;;21.90;46.20;;;;;;5429966;26;20008;-60
2024/04/27 09:46:26;;;;;;;1.83;0.73;;;21.90;46.20;;;;;;5428374;26;20516;-61
2024/04/27 09:48:54;;;;;;;0.60;0.60;;;21.80;46.10;;;;;;5418930;26;20017;-61
2024/04/27 09:51:25;;;;;;;1.45;0.90;;;21.90;46.20;;;;;;5429103;26;20023;-61
2024/04/27 09:53:51;;;;;;;1.63;0.82;;;21.90;46.20;;;;;;5429415;26;20016;-61
2024/04/27 09:56:17;;;;;;;1.02;0.73;;;21.90;46.20;;;;;;5424597;26;20455;-61
2024/04/27 09:58:44;;;;;;;1.33;0.80;;;21.90;46.20;;;;;;5430953;26;19999;-61
2024/04/27 10:01:10;;;;;;;1.33;0.90;;;21.90;46.20;;;;;;5427132;26;20041;-61
2024/04/27 10:03:39;;;;;;;1.02;0.80;;;21.90;46.20;;;;;;5420810;26;20454;-61
2024/04/27 10:06:17;;;;;;;2.03;0.80;;;21.90;46.50;;;;;;5431163;26;20347;-60
2024/04/27 10:08:49;;;;;;;1.13;0.80;;;21.90;46.20;;;;;;5427690;26;19999;-61
2024/04/27 10:11:16;;;;;;;1.30;0.75;;;21.90;46.20;;;;;;5426703;26;20000;-61
2024/04/27 10:13:47;;;;;;;1.92;0.88;;;21.90;46.10;;;;;;5426309;26;20018;-61
2024/04/27 10:16:13;;;;;;;1.13;0.70;;;21.90;46.20;;;;;;5424607;26;20431;-61
2024/04/27 10:18:38;;;;;;;1.25;0.75;;;21.90;46.20;;;;;;5424580;26;20081;-61
2024/04/27 10:21:04;;;;;;;1.77;0.90;;;21.90;46.10;;;;;;5428668;26;19995;-61
2024/04/27 10:23:30;;;;;;;1.10;0.75;;;21.90;46.10;;;;;;5428053;26;20052;-60
2024/04/27 10:26:05;;;;;;;1.00;0.73;;;21.90;46.10;;;;;;5429285;26;20014;-62
2024/04/27 10:28:43;;;;;;;1.15;0.60;;;21.90;46.10;;;;;;5425169;26;20531;-62
2024/04/27 10:31:12;;;;;;;0.93;0.70;;;21.90;46.10;;;;;;5426936;26;20004;-62
2024/04/27 10:33:47;;;;;;;1.30;0.82;;;21.90;46.10;;;;;;5424093;26;20440;-63
2024/04/27 10:36:13;;;;;;;1.30;0.88;;;21.90;46.10;;;;;;5428232;26;19999;-62
2024/04/27 10:38:42;;;;;;;1.20;0.70;;;21.90;46.10;;;;;;5428849;26;19995;-63
2024/04/27 10:41:11;;;;;;;1.00;0.70;;;22.00;46.10;;;;;;5425370;26;19995;-62
2024/04/27 10:43:50;;;;;;;;;;;21.90;46.10;;;;;;5427023;26;20689;-62
2024/04/27 10:46:22;;;;;;;1.17;0.90;;;22.00;46.10;;;;;;5423090;26;19924;-62
2024/04/27 10:48:48;;;;;;;1.40;0.88;;;21.90;46.10;;;;;;5426389;26;20482;-62
2024/04/27 10:51:14;;;;;;;1.10;0.73;;;21.90;46.10;;;;;;5428561;26;20013;-62
2024/04/27 10:53:40;;;;;;;0.90;0.75;;;21.90;46.10;;;;;;5431252;26;20004;-62
2024/04/27 10:56:06;;;;;;;0.90;0.70;;;22.00;46.10;;;;;;5427343;26;20432;-61
2024/04/27 10:58:32;;;;;;;1.23;0.70;;;22.00;46.10;;;;;;5423965;26;20006;-60
2024/04/27 11:00:58;;;;;;;1.17;0.90;;;22.00;46.10;;;;;;5422169;26;21180;-61
2024/04/27 11:03:24;;;;;;;0.98;0.80;;;22.00;46.10;;;;;;5425121;26;20162;-61
2024/04/27 11:05:51;;;;;;;1.55;0.98;;;22.00;46.10;;;;;;5427928;26;20441;-61
2024/04/27 11:08:20;;;;;;;0.85;0.70;;;22.00;46.10;;;;;;5434366;26;20014;-60
2024/04/27 11:10:47;;;;;;;1.10;0.80;;;22.00;46.10;;;;;;5431209;26;20014;-61
2024/04/27 11:13:13;;;;;;;0.95;0.80;;;22.00;46.10;;;;;;5430345;26;20448;-61
2024/04/27 11:15:39;;;;;;;1.08;0.80;;;22.00;46.60;;;;;;5437033;26;19999;-61
2024/04/27 11:18:06;;;;;;;1.63;0.80;;;22.00;46.10;;;;;;5428233;26;20026;-61
2024/04/27 11:20:32;;;;;;;0.88;0.80;;;22.00;46.10;;;;;;5432835;26;20060;-60
2024/04/27 11:22:58;;;;;;;0.88;0.70;;;21.90;46.00;;;;;;5428999;26;20102;-61
2024/04/27 11:25:24;;;;;;;0.88;0.80;;;22.00;46.00;;;;;;5430827;26;20006;-61
2024/04/27 11:27:50;;;;;;;1.10;0.80;;;22.00;46.10;;;;;;5430941;26;20009;-61
2024/04/27 11:30:15;;;;;;;1.63;0.70;;;22.00;46.10;;;;;;5432919;26;20007;-60
2024/04/27 11:32:41;;;;;;;1.52;1.00;;;22.00;46.00;;;;;;5434083;26;20039;-61
2024/04/27 11:35:08;;;;;;;1.17;0.88;;;22.00;46.00;;;;;;5429777;26;20011;-60
2024/04/27 11:37:33;;;;;;;1.52;0.80;;;22.00;46.00;;;;;;5430122;26;20332;-61
2024/04/27 11:40:00;;;;;;;0.88;0.80;;;22.00;46.00;;;;;;5429780;26;20072;-61
2024/04/27 11:42:25;;;;;;;0.80;0.68;;;22.00;46.10;;;;;;5427429;26;20000;-61
2024/04/27 11:44:51;;;;;;;0.55;0.55;;;22.00;46.00;;;;;;5430440;26;20347;-60
2024/04/27 11:47:17;;;;;;;1.17;0.90;;;22.00;46.10;;;;;;5432420;26;19994;-61
2024/04/27 11:49:42;;;;;;;0.77;0.60;;;22.00;46.10;;;;;;5427334;26;19995;-61
2024/04/27 11:52:10;;;;;;;0.70;0.70;;;22.00;46.10;;;;;;5426710;26;20009;-61
2024/04/27 11:54:36;;;;;;;0.70;0.70;;;22.00;46.10;;;;;;5431571;26;19995;-61
2024/04/27 11:57:01;;;;;;;0.93;0.80;;;22.00;46.10;;;;;;5429078;26;20009;-62
2024/04/27 11:59:27;;;;;;;0.70;0.70;;;22.00;46.10;;;;;;5429523;26;20007;-61
2024/04/27 12:01:53;;;;;;;0.80;0.70;;;22.00;46.10;;;;;;5432591;26;20387;-61
2024/04/27 12:04:18;;;;;;;1.13;0.80;;;22.10;46.10;;;;;;5425978;26;20548;-62
2024/04/27 12:06:44;;;;;;;1.25;0.70;;;22.00;46.10;;;;;;5430061;26;20007;-63
2024/04/27 12:09:10;;;;;;;0.80;0.65;;;22.00;46.10;;;;;;5431814;26;20036;-63
2024/04/27 12:11:36;;;;;;;0.85;0.65;;;22.10;46.10;;;;;;5430424;26;20339;-63
2024/04/27 12:14:01;;;;;;;0.70;0.70;;;22.10;46.10;;;;;;5431820;26;20007;-61
2024/04/27 12:16:27;;;;;;;0.93;0.80;;;22.00;46.10;;;;;;5430583;26;19999;-62
2024/04/27 12:18:53;;;;;;;0.70;0.70;;;22.10;46.90;;;;;;5422360;26;20014;-63
2024/04/27 12:21:18;;;;;;;1.08;0.80;;;22.10;46.60;;;;;;5429212;26;20004;-62
2024/04/27 12:23:44;;;;;;;2.03;0.80;;;22.10;46.60;;;;;;5430382;26;20021;-62
2024/04/27 12:26:09;;;;;;;1.45;0.90;;;22.20;46.40;;;;;;5433717;26;20437;-63
2024/04/27 12:28:35;;;;;;;0.70;0.70;;;22.20;45.90;;;;;;5435199;26;20003;-63
2024/04/27 12:31:02;;;;;;;0.60;0.60;;;22.20;45.40;;;;;;5431491;26;20013;-63
2024/04/27 12:33:29;;;;;;;1.23;0.73;;;22.20;45.00;;;;;;5425225;26;20016;-63
2024/04/27 12:35:55;;;;;;;2.22;0.80;;;22.30;45.20;;;;;;5432418;26;20003;-63
2024/04/27 12:38:20;;;;;;;0.70;0.65;;;22.30;45.40;;;;;;5430692;26;20101;-62
2024/04/27 12:40:46;;;;;;;0.80;0.68;;;22.30;45.50;;;;;;5431545;26;20010;-62
2024/04/27 12:43:11;;;;;;;0.93;0.60;;;22.30;45.50;;;;;;5428282;26;20003;-62
2024/04/27 12:45:37;;;;;;;0.90;0.65;;;22.30;45.40;;;;;;5430525;26;21139;-62